Latest Weather Observations for Mount Magnet Airport

IDW60801

Issued at 4:52 pm WST Thursday 30 May 2024 (issued every 10 minutes, with the page automatically refreshed every 10 minutes)

About weather observations | Map of weather stations | Latest weather observations for WA | Other Formats
Station Details ID: 007600 Name: MOUNT MAGNET AERO Lat: -28.12 Lon: 117.84 Height: 407.0 m
Data from the previous 72 hours. | See also: Recent months at Mount Magnet Airport
Date/Time
WST
Temp
°C
App
Temp
°C
Dew
Point
°C
Rel
Hum
%
Delta-T
°C
Wind Press
QNH
hPa
Press
MSL
hPa
Rain since
9am
mm
Dir  Spd
km/h
Gust
km/h
Spd
kts
Gust
kts
30/04:30pm 18.3 14.2 4.1 39 6.9 SSW 15 20 8 11 1019.3 1018.2 0.0
30/04:00pm 18.5 15.1 3.9 38 7.0 SW 11 20 6 11 1019.3 1018.2 0.0
30/03:30pm 18.9 15.9 3.9 37 7.3 WSW 9 15 5 8 1019.1 1018.0 0.0
30/03:00pm 18.5 15.1 3.9 38 7.0 WSW 11 19 6 10 1018.9 1017.9 0.0
30/02:30pm 18.5 15.1 3.9 38 7.0 WSW 11 22 6 12 1019.1 1018.0 0.0
30/02:00pm 18.3 15.3 4.1 39 6.9 WNW 9 15 5 8 1019.2 1018.1 0.0
30/01:30pm 17.2 13.4 3.8 41 6.4 W 13 20 7 11 1019.4 1018.3 0.0
30/01:00pm 17.4 13.2 3.7 40 6.5 W 15 20 8 11 1019.6 1018.5 0.0
30/12:30pm 16.8 12.9 3.5 41 6.3 SW 13 19 7 10 1019.8 1018.7 0.0
30/12:00pm 16.7 13.2 3.7 42 6.1 W 11 15 6 8 1020.1 1019.0 0.0
30/11:30am 16.3 12.8 3.7 43 6.0 WSW 11 15 6 8 1020.5 1019.4 0.0
30/11:00am 16.1 12.4 4.2 45 5.7 W 13 19 7 10 1020.7 1019.6 0.0
30/10:30am 15.9 13.1 3.4 43 5.9 NNW 7 15 4 8 1020.6 1019.5 0.0
30/10:00am 14.7 11.4 2.6 44 5.5 NW 9 15 5 8 1020.9 1019.8 0.0
30/09:30am 14.1 10.4 2.4 45 5.3 NNW 11 15 6 8 1020.9 1019.8 0.0
30/09:00am 13.4 10.2 3.2 50 4.6 NNW 9 13 5 7 1020.7 1019.6 0.0
30/08:30am 12.1 9.1 3.9 57 3.8 N 9 11 5 6 1020.2 1019.1 0.0
30/08:00am 9.7 8.3 3.4 65 2.8 CALM 0 0 0 0 1019.8 1018.7 0.0
30/07:30am 7.5 4.6 2.6 71 2.1 N 7 9 4 5 1019.5 1018.4 0.0
30/07:00am 6.2 2.8 1.9 74 1.8 N 9 11 5 6 1018.8 1017.8 0.0
30/06:30am 6.0 2.6 1.7 74 1.8 N 9 11 5 6 1018.6 1017.5 0.0
30/06:00am 6.1 3.1 1.8 74 1.8 N 7 9 4 5 1018.3 1017.2 0.0
30/05:30am 6.5 3.2 2.2 74 1.8 N 9 11 5 6 1018.2 1017.1 0.0
30/05:00am 5.9 4.1 1.2 72 1.9 CALM 0 0 0 0 1018.1 1017.0 0.0
30/04:30am 6.4 4.7 1.7 72 1.9 CALM 0 0 0 0 1018.0 1016.9 0.0
30/04:00am 7.4 5.8 2.5 71 2.1 CALM 0 0 0 0 1018.1 1017.0 0.0
30/03:30am 8.6 5.5 3.6 71 2.2 WNW 9 9 5 5 1018.2 1017.1 0.0
30/03:00am 9.1 5.7 3.9 70 2.3 WNW 11 11 6 6 1018.3 1017.2 0.0
30/02:30am 8.0 6.3 2.0 66 2.5 CALM 0 0 0 0 1018.2 1017.1 0.0
30/02:00am 9.0 7.5 2.8 65 2.7 CALM 0 0 0 0 1018.3 1017.2 0.0
30/01:30am 9.2 7.6 2.5 63 2.9 CALM 0 0 0 0 1018.1 1017.0 0.0
30/01:00am 9.6 8.1 3.1 64 2.9 CALM 0 0 0 0 1018.1 1017.0 0.0
30/12:30am 10.7 8.2 3.5 61 3.2 SSW 6 7 3 4 1018.2 1017.1 0.0
30/12:00am 11.3 8.8 3.8 60 3.4 SSW 6 7 3 4 1018.0 1016.9 0.0
 
Date/Time
WST
Temp
°C
App
Temp
°C
Dew
Point
°C
Rel
Hum
%
Delta-T
°C
Wind Press
QNH
hPa
Press
MSL
hPa
Rain since
9am
mm
Dir  Spd
km/h
Gust
km/h
Spd
kts
Gust
kts
29/11:30pm 12.2 8.8 4.2 58 3.7 SSW 11 15 6 8 1018.1 1017.0 0.0
29/11:00pm 12.9 8.8 4.3 56 4.0 S 15 22 8 12 1018.2 1017.1 0.0
29/10:30pm 13.6 9.5 4.2 53 4.4 SSW 15 19 8 10 1018.3 1017.2 0.0
29/10:00pm 13.9 9.3 3.9 51 4.6 SSW 17 24 9 13 1018.1 1017.0 0.0
29/09:30pm 13.9 9.0 3.9 51 4.7 SSW 19 26 10 14 1017.9 1016.8 0.0
29/09:00pm 14.3 10.5 4.0 50 4.8 SSW 13 17 7 9 1017.8 1016.7 0.0
29/08:30pm 14.5 9.9 3.9 49 5.0 SSW 17 22 9 12 1017.7 1016.6 0.0
29/08:00pm 14.8 11.1 4.2 49 5.0 SW 13 20 7 11 1017.5 1016.4 0.0
29/07:30pm 14.5 10.8 4.2 50 4.8 SSW 13 17 7 9 1016.9 1015.8 0.0
29/07:00pm 14.8 10.2 3.9 48 5.1 SSW 17 22 9 12 1016.6 1015.4 0.0
29/06:30pm 15.6 9.7 1.7 39 6.3 WSW 22 28 12 15 1016.0 1014.9 0.0
29/06:00pm 15.9 10.2 2.7 41 6.1 WSW 22 30 12 16 1015.6 1014.5 0.0
29/05:30pm 16.4 10.7 2.8 40 6.3 SW 22 32 12 17 1015.2 1014.1 0.0
29/05:00pm 16.8 9.8 1.7 36 6.9 WSW 28 41 15 22 1014.8 1013.7 0.0
29/04:30pm 17.1 10.1 1.9 36 7.0 SW 28 35 15 19 1014.4 1013.2 0.0
29/04:00pm 17.9 10.9 1.8 34 7.4 SW 28 39 15 21 1014.0 1012.8 0.0
29/03:30pm 17.7 10.3 2.1 35 7.2 SW 30 46 16 25 1013.7 1012.6 0.0
29/03:13pm 18.2 11.2 1.7 33 7.6 WSW 28 46 15 25 1013.7 1012.6 0.0
29/03:00pm 18.0 10.2 1.9 34 7.4 WSW 32 41 17 22 1013.5 1012.4 0.0
29/02:30pm 18.6 11.2 2.0 33 7.7 SW 30 50 16 27 1013.4 1012.3 0.0
29/02:27pm 18.4 10.6 1.9 33 7.6 SW 32 50 17 27 1013.2 1012.1 0.0
29/02:00pm 19.0 10.7 2.0 32 7.9 SW 35 48 19 26 1013.0 1011.9 0.0
29/01:30pm 18.7 10.8 2.1 33 7.7 WSW 33 44 18 24 1013.2 1012.1 0.0
29/01:09pm 17.9 10.1 1.4 33 7.5 WSW 32 50 17 27 1013.2 1012.1 0.0
29/01:00pm 19.3 11.2 1.3 30 8.3 WSW 33 44 18 24 1013.2 1012.1 0.0
29/12:30pm 18.3 8.9 2.6 35 7.4 WSW 41 61 22 33 1013.2 1012.1 0.0
29/12:26pm 18.6 9.2 2.4 34 7.6 WSW 41 61 22 33 1013.3 1012.2 0.0
29/12:00pm 18.6 11.1 3.3 36 7.3 WSW 32 46 17 25 1013.5 1012.4 0.0
29/11:30am 17.1 7.4 2.7 38 6.7 WSW 43 57 23 31 1013.8 1012.7 0.0
29/11:00am 17.1 8.3 3.8 41 6.3 WSW 39 56 21 30 1014.1 1012.9 0.0
29/10:30am 16.4 8.5 6.2 51 5.1 WSW 37 54 20 29 1014.2 1013.0 0.0
29/10:11am 16.5 9.5 6.9 53 4.8 WSW 33 52 18 28 1014.3 1013.1 0.0
29/10:00am 15.7 8.0 7.0 56 4.4 WSW 37 50 20 27 1014.3 1013.1 0.0
29/09:47am 15.8 8.5 7.1 56 4.4 WSW 35 54 19 29 1014.2 1013.0 0.0
29/09:30am 16.0 9.0 7.0 55 4.5 W 33 48 18 26 1014.1 1012.9 0.0
29/09:00am 15.8 10.3 9.0 64 3.6 W 28 39 15 21 1013.8 1012.7 0.0
29/08:30am 15.0 10.8 9.8 71 2.8 W 22 32 12 17 1013.8 1012.7 0.0
29/08:00am 14.6 10.8 9.8 73 2.5 WNW 20 30 11 16 1013.5 1012.4 0.0
29/07:30am 14.3 10.8 10.1 76 2.2 WNW 19 28 10 15 1013.2 1012.1 0.0
29/07:00am 13.8 10.3 10.2 79 1.9 WNW 19 24 10 13 1012.8 1011.7 0.0
29/06:30am 13.4 9.8 10.0 80 1.8 WNW 19 24 10 13 1012.3 1011.1 0.0
29/06:00am 13.6 10.5 10.4 81 1.7 WNW 17 20 9 11 1011.8 1010.6 0.0
29/05:30am 13.9 11.2 10.5 80 1.8 WNW 15 20 8 11 1011.4 1010.2 0.0
29/05:00am 14.3 11.6 10.5 78 2.0 WNW 15 19 8 10 1011.1 1010.0 0.0
29/04:30am 14.4 11.8 10.6 78 2.0 W 15 17 8 9 1010.9 1009.8 0.0
29/04:00am 14.5 12.3 10.7 78 2.0 WNW 13 17 7 9 1011.0 1009.9 0.0
29/03:30am 14.6 12.4 10.8 78 2.0 W 13 17 7 9 1011.0 1009.9 0.0
29/03:00am 14.8 12.9 10.6 76 2.3 W 11 15 6 8 1011.2 1010.1 0.0
29/02:30am 14.8 13.4 11.0 78 2.1 WSW 9 11 5 6 1011.1 1010.0 0.0
29/02:00am 14.9 12.8 11.1 78 2.1 SW 13 17 7 9 1011.2 1010.1 0.0
29/01:30am 15.3 12.8 11.1 76 2.3 SW 15 20 8 11 1011.2 1010.1 0.0
29/01:00am 15.8 13.7 11.2 74 2.5 SW 13 19 7 10 1011.4 1010.2 0.0
29/12:30am 16.3 15.0 11.2 72 2.8 SW 9 11 5 6 1011.1 1010.0 0.0
29/12:00am 16.7 14.6 11.2 70 3.0 SW 13 15 7 8 1011.1 1010.0 0.0
 
Date/Time
WST
Temp
°C
App
Temp
°C
Dew
Point
°C
Rel
Hum
%
Delta-T
°C
Wind Press
QNH
hPa
Press
MSL
hPa
Rain since
9am
mm
Dir  Spd
km/h
Gust
km/h
Spd
kts
Gust
kts
28/11:30pm 17.2 14.6 11.9 71 3.0 SW 17 24 9 13 1011.4 1010.2 0.0
28/11:00pm 17.6 14.6 11.9 69 3.2 SSW 19 22 10 12 1011.5 1010.3 0.0
28/10:30pm 18.3 14.9 11.4 64 3.8 SW 20 28 11 15 1011.2 1010.1 0.0
28/10:00pm 19.3 15.3 10.3 56 4.9 SW 22 32 12 17 1011.1 1010.0 0.0
28/09:30pm 19.8 16.6 10.0 53 5.4 SW 17 24 9 13 1011.0 1009.9 0.0
28/09:00pm 20.4 16.6 9.9 51 5.8 SW 20 30 11 16 1010.9 1009.8 0.0
28/08:30pm 21.4 16.9 6.9 39 7.6 WSW 20 28 11 15 1010.9 1009.8 0.0
28/08:00pm 22.1 16.9 5.5 34 8.5 WSW 22 32 12 17 1010.9 1009.8 0.0
28/07:30pm 22.5 18.8 4.5 31 9.0 W 13 15 7 8 1010.9 1009.8 0.0
28/07:00pm 22.8 19.4 3.9 29 9.4 WSW 11 15 6 8 1010.8 1009.7 0.0
28/06:30pm 23.0 19.6 4.0 29 9.5 WSW 11 15 6 8 1010.5 1009.4 0.0
28/06:00pm 23.4 18.8 3.9 28 9.7 WSW 17 20 9 11 1010.3 1009.2 0.0
28/05:30pm 24.0 19.4 3.9 27 10.1 WSW 17 22 9 12 1010.2 1009.0 0.0
28/05:00pm 24.6 19.4 3.8 26 10.5 WSW 20 26 11 14 1010.0 1008.8 0.0
28/04:30pm 25.4 20.1 2.8 23 11.2 SW 20 30 11 16 1009.9 1008.7 0.0
28/04:00pm 25.9 19.9 1.2 20 12.0 WSW 22 28 12 15 1009.8 1008.6 0.0
28/03:30pm 26.3 21.2 0.9 19 12.2 SW 17 24 9 13 1009.8 1008.6 0.0
28/03:00pm 27.0 21.6 1.4 19 12.5 SSW 19 24 10 13 1009.7 1008.5 0.0
28/02:30pm 27.3 23.0 0.9 18 12.8 W 13 20 7 11 1009.7 1008.5 0.0
28/02:00pm 27.3 22.7 -0.7 16 13.2 N 13 26 7 14 1009.9 1008.7 0.0
28/01:30pm 27.1 23.4 0.0 17 12.9 NW 9 22 5 12 1010.4 1009.3 0.0
28/01:00pm 26.9 23.2 -0.2 17 12.9 NNW 9 13 5 7 1011.0 1009.9 0.0
28/12:30pm 26.0 22.3 -0.1 18 12.3 ENE 9 15 5 8 1011.5 1010.3 0.0
28/12:00pm 25.5 22.5 0.9 20 11.8 ENE 6 11 3 6 1012.3 1011.1 0.0
28/11:30am 24.7 21.3 1.6 22 11.2 E 9 13 5 7 1013.1 1012.0 0.0
28/11:00am 23.5 19.6 3.4 27 9.9 ENE 13 17 7 9 1013.8 1012.7 0.0
28/10:30am 23.3 19.2 2.2 25 10.2 ENE 13 20 7 11 1014.4 1013.2 0.0
28/10:00am 21.6 19.1 1.8 27 9.4 SSW 4 9 2 5 1014.8 1013.7 0.0
28/09:30am 19.9 17.4 1.8 30 8.5 SW 4 7 2 4 1015.1 1014.0 0.0
28/09:00am 16.7 13.7 0.8 34 7.1 SW 6 7 3 4 1015.2 1014.1 0.0
28/08:30am 15.0 11.9 0.1 36 6.5 SW 6 6 3 3 1015.3 1014.2 0.0
28/08:00am 14.5 11.5 0.7 39 6.0 SW 6 7 3 4 1015.3 1014.2 0.0
28/07:30am 14.7 12.9 0.9 39 6.1 CALM 0 0 0 0 1015.1 1014.0 0.0
28/07:29am 14.7 12.9 0.9 39 6.1 CALM 0 0 0 0 1015.1 1014.0 0.0
28/07:10am 14.8 13.0 1.0 39 6.1 CALM 0 0 0 0 1015.1 1014.0 0.0
28/07:00am 14.8 11.6 1.0 39 6.1 W 7 9 4 5 1015.1 1014.0 0.0
28/06:30am 14.9 11.3 0.7 38 6.2 NE 9 11 5 6 1014.7 1013.6 0.0
28/06:00am 14.3 10.7 0.9 40 5.9 NNE 9 11 5 6 1014.6 1013.5 0.0
28/05:30am 14.4 10.0 0.6 39 6.0 NE 13 17 7 9 1014.9 1013.8 0.0
28/05:00am 13.8 9.8 0.8 41 5.7 NE 11 13 6 7 1015.2 1014.1 0.0
28/04:30am 14.1 12.2 0.4 39 5.9 CALM 0 0 0 0 1015.2 1014.1 0.0
28/04:00am 15.1 13.2 0.5 37 6.4 CALM 0 0 0 0 1015.2 1014.1 0.0
28/03:30am 15.8 12.7 0.4 35 6.8 SSW 6 9 3 5 1015.3 1014.2 0.0
28/03:00am 16.2 12.5 -0.1 33 7.1 WSW 9 11 5 6 1015.4 1014.3 0.0
28/02:30am 16.4 12.7 0.1 33 7.2 WSW 9 9 5 5 1015.8 1014.7 0.0
28/02:00am 16.9 12.9 0.5 33 7.3 WSW 11 13 6 7 1016.2 1015.1 0.0
28/01:30am 17.3 13.9 -0.9 29 7.9 SW 7 9 4 5 1016.2 1015.1 0.0
28/01:00am 18.5 14.7 -0.8 27 8.5 SSW 9 11 5 6 1016.6 1015.4 0.0
28/12:30am 17.0 12.8 -0.7 30 7.7 WNW 11 15 6 8 1016.8 1015.7 0.0
28/12:00am 16.6 12.8 -1.0 30 7.5 W 9 11 5 6 1017.1 1016.0 0.0
 
Date/Time
WST
Temp
°C
App
Temp
°C
Dew
Point
°C
Rel
Hum
%
Delta-T
°C
Wind Press
QNH
hPa
Press
MSL
hPa
Rain since
9am
mm
Dir  Spd
km/h
Gust
km/h
Spd
kts
Gust
kts
27/11:30pm 17.3 13.4 -1.4 28 8.0 WSW 9 11 5 6 1017.3 1016.2 0.0
27/11:00pm 17.7 13.8 -1.5 27 8.2 WSW 9 11 5 6 1017.6 1016.5 0.0
27/10:30pm 18.8 14.2 -1.1 26 8.7 WSW 13 22 7 12 1017.7 1016.6 0.0
27/10:00pm 18.1 13.9 -0.7 28 8.2 NNW 11 13 6 7 1017.6 1016.5 0.0
27/09:30pm 18.6 14.0 -0.7 27 8.5 N 13 15 7 8 1017.6 1016.5 0.0
27/09:00pm 18.8 13.9 -0.6 27 8.6 NNE 15 15 8 8 1017.6 1016.5 0.0
27/08:30pm 19.3 15.1 -0.7 26 8.9 N 11 15 6 8 1017.7 1016.6 0.0
27/08:00pm 19.9 15.7 -0.7 25 9.1 N 11 13 6 7 1017.5 1016.4 0.0
27/07:30pm 20.7 16.9 -1.1 23 9.7 N 9 11 5 6 1017.7 1016.6 0.0
27/07:00pm 21.6 17.4 -1.0 22 10.1 N 11 13 6 7 1017.7 1016.6 0.0
27/06:30pm 23.2 19.4 -1.0 20 11.0 N 9 9 5 5 1017.5 1016.4 0.0
27/06:00pm 24.4 20.1 -1.4 18 11.7 NW 11 13 6 7 1017.2 1016.1 0.0
27/05:30pm 25.6 20.9 -2.1 16 12.6 NNW 13 17 7 9 1017.1 1016.0 0.0
27/05:00pm 27.1 21.5 -2.7 14 13.5 NNW 17 22 9 12 1017.0 1015.9 0.0

Other formats

Comma delimited format used in spreadsheet applications
http://www.bom.gov.au/fwo/IDW60801/IDW60801.94429.axf

JavaScript Object Notation format (JSON) in row-major order
http://www.bom.gov.au/fwo/IDW60801/IDW60801.94429.json

Data quality

Most of these data are generated automatically and are frequently updated. Quality checks on data are not normally performed. It is possible for incorrect values to appear. Refer to information at About Latest Weather Observations and please check the disclaimer before using these data.